Time;durP1;ratioP1;P1;durP2;ratioP2;P2;SDS_P1;SDS_P2;PMS_P1;PMS_P2;Temp;Humidity;BMP_temperature;BMP_pressure;BME280_temperature;BME280_humidity;BME280_pressure;Samples;Min_cycle;Max_cycle;Signal;HPM_P1;HPM_P2
2022/02/19 00:01:05;;;;;;;8.53;2.70;;;6.20;99.90;;;;;;5039801;28;20264;-92
2022/02/19 00:03:31;;;;;;;4.47;1.40;;;6.20;99.90;;;;;;5040546;28;20221;-89
2022/02/19 00:05:57;;;;;;;12.77;3.33;;;6.20;99.90;;;;;;5056511;28;20224;-88
2022/02/19 00:08:23;;;;;;;15.53;1.53;;;6.20;99.90;;;;;;5058381;28;20208;-89
2022/02/19 00:10:49;;;;;;;7.33;1.70;;;6.10;99.90;;;;;;5039381;28;20213;-88
2022/02/19 00:13:15;;;;;;;8.60;1.10;;;6.10;99.90;;;;;;5056504;28;20228;-92
2022/02/19 00:15:41;;;;;;;8.20;2.60;;;6.00;99.90;;;;;;5058254;28;20209;-91
2022/02/19 00:18:07;;;;;;;8.93;1.80;;;6.00;99.90;;;;;;5067048;28;20705;-88
2022/02/19 00:20:33;;;;;;;3.80;2.17;;;6.10;99.90;;;;;;5055074;28;20185;-91
2022/02/19 00:22:59;;;;;;;16.47;2.40;;;6.00;99.90;;;;;;5056320;28;20254;-90
2022/02/19 00:25:26;;;;;;;4.23;0.73;;;6.00;99.90;;;;;;5041208;28;20307;-87
2022/02/19 00:27:53;;;;;;;4.57;1.53;;;6.00;99.90;;;;;;5066620;28;20217;-88
2022/02/19 00:30:19;;;;;;;3.40;1.20;;;6.00;99.90;;;;;;5054879;28;20286;-86
2022/02/19 00:32:45;;;;;;;2.37;1.20;;;6.10;99.90;;;;;;5053866;28;20237;-87
2022/02/19 00:35:11;;;;;;;4.27;1.00;;;6.00;99.90;;;;;;5024836;28;20192;-88
2022/02/19 00:37:37;;;;;;;10.80;1.83;;;6.10;99.90;;;;;;5055562;28;20213;-88
2022/02/19 00:40:04;;;;;;;14.63;1.33;;;6.10;99.90;;;;;;5022488;28;20656;-86
2022/02/19 00:42:30;;;;;;;22.97;1.87;;;6.10;99.90;;;;;;5024787;28;20218;-90
2022/02/19 00:44:55;;;;;;;7.90;2.53;;;6.00;99.90;;;;;;5056572;28;20221;-89
2022/02/19 00:47:21;;;;;;;5.70;1.03;;;6.10;99.90;;;;;;5055803;28;20623;-92
2022/02/19 00:49:47;;;;;;;1.13;1.03;;;6.10;99.90;;;;;;5032628;28;20259;-91
2022/02/19 00:52:13;;;;;;;1.23;0.77;;;6.20;99.90;;;;;;5062253;28;20566;-89
2022/02/19 00:54:38;;;;;;;5.07;1.27;;;6.30;99.90;;;;;;5036962;28;20221;-90
2022/02/19 00:57:04;;;;;;;1.80;1.07;;;6.30;99.90;;;;;;5035991;28;20755;-92
2022/02/19 00:59:30;;;;;;;0.77;0.60;;;6.10;99.90;;;;;;5052846;28;20711;-91
2022/02/19 01:01:56;;;;;;;0.90;0.90;;;6.00;99.90;;;;;;5019653;28;20193;-89
2022/02/19 01:04:22;;;;;;;5.50;2.87;;;6.00;99.90;;;;;;5035333;28;21019;-88
2022/02/19 01:06:48;;;;;;;5.77;1.27;;;5.90;99.90;;;;;;5036079;28;20224;-89
2022/02/19 01:09:13;;;;;;;1.73;1.37;;;5.90;99.90;;;;;;5055094;28;20221;-89
2022/02/19 01:11:39;;;;;;;1.43;0.70;;;5.90;99.90;;;;;;5038502;28;20256;-88
2022/02/19 01:14:09;;;;;;;0.80;0.77;;;5.80;99.90;;;;;;5020890;28;20685;-89
2022/02/19 01:16:35;;;;;;;5.50;1.10;;;5.80;99.90;;;;;;5053525;28;20231;-89
2022/02/19 01:19:01;;;;;;;2.63;1.23;;;5.70;99.90;;;;;;5055174;28;20228;-88
2022/02/19 01:21:27;;;;;;;2.37;1.07;;;5.70;99.90;;;;;;5054673;28;20297;-88
2022/02/19 01:23:53;;;;;;;9.13;0.97;;;5.80;99.90;;;;;;5065744;28;20862;-88
2022/02/19 01:26:19;;;;;;;6.73;1.57;;;5.80;99.90;;;;;;5055993;28;21080;-88
2022/02/19 01:28:44;;;;;;;12.63;1.93;;;5.80;99.90;;;;;;5054139;28;20182;-88
2022/02/19 01:31:10;;;;;;;0.80;0.80;;;5.90;99.90;;;;;;5022035;28;20229;-89
2022/02/19 01:33:36;;;;;;;2.97;1.17;;;5.90;99.90;;;;;;5040255;28;20225;-90
2022/02/19 01:36:03;;;;;;;1.17;1.07;;;6.00;99.90;;;;;;5040564;28;20625;-89
2022/02/19 01:38:29;;;;;;;13.13;1.47;;;6.00;99.90;;;;;;5056046;28;20193;-88
2022/02/19 01:40:56;;;;;;;4.83;0.67;;;5.90;99.90;;;;;;5066720;28;20284;-88
2022/02/19 01:43:22;;;;;;;0.43;0.43;;;5.90;99.90;;;;;;5065413;28;20263;-88
2022/02/19 01:45:48;;;;;;;1.97;0.57;;;5.90;99.90;;;;;;5050600;28;20225;-88
2022/02/19 01:48:15;;;;;;;0.60;0.60;;;5.60;99.90;;;;;;5051631;28;20243;-89
2022/02/19 01:50:41;;;;;;;2.70;2.50;;;5.40;99.90;;;;;;5051240;28;20674;-88
2022/02/19 01:53:08;;;;;;;0.90;0.90;;;5.20;99.90;;;;;;5055557;28;21115;-88
2022/02/19 01:55:34;;;;;;;0.30;0.30;;;4.90;99.90;;;;;;5065914;28;20336;-87
2022/02/19 01:58:02;;;;;;;0.97;0.47;;;4.70;99.90;;;;;;5048185;28;20296;-85
2022/02/19 02:00:29;;;;;;;1.23;0.93;;;4.90;99.90;;;;;;5055064;28;20246;-90
2022/02/19 02:02:56;;;;;;;5.00;1.70;;;5.00;99.90;;;;;;5065652;28;20220;-88
2022/02/19 02:05:22;;;;;;;5.23;2.17;;;5.10;99.90;;;;;;5038691;28;20204;-90
2022/02/19 02:07:48;;;;;;;1.47;1.37;;;5.20;99.90;;;;;;5038187;28;20193;-90
2022/02/19 02:10:15;;;;;;;2.00;1.23;;;5.20;99.90;;;;;;5064947;28;20213;-90
2022/02/19 02:12:41;;;;;;;0.50;0.50;;;5.10;99.90;;;;;;5054401;28;20320;-90
2022/02/19 02:15:28;;;;;;;0.50;0.43;;;5.10;99.90;;;;;;5067140;28;20231;-92
2022/02/19 02:17:56;;;;;;;6.10;0.67;;;5.20;99.90;;;;;;5058353;28;20220;-90
2022/02/19 02:20:22;;;;;;;1.80;0.70;;;5.30;99.90;;;;;;5068954;28;20658;-90
2022/02/19 02:22:47;;;;;;;0.53;0.53;;;5.20;99.90;;;;;;5025635;28;20185;-87
2022/02/19 02:25:14;;;;;;;0.20;0.20;;;5.20;99.90;;;;;;5042292;28;21162;-88
2022/02/19 02:27:40;;;;;;;0.47;0.47;;;5.20;99.90;;;;;;5057955;28;20213;-91
2022/02/19 02:30:07;;;;;;;0.30;0.30;;;5.10;99.90;;;;;;5058431;28;20270;-91
2022/02/19 02:32:32;;;;;;;0.20;0.20;;;5.00;99.90;;;;;;5059400;28;20249;-88
2022/02/19 02:34:58;;;;;;;0.50;0.50;;;5.10;99.90;;;;;;5044283;28;20197;-91
2022/02/19 02:37:25;;;;;;;0.40;0.40;;;5.10;99.90;;;;;;5058527;28;20223;-89
2022/02/19 02:39:52;;;;;;;0.87;0.83;;;5.30;99.90;;;;;;5056627;28;20256;-90
2022/02/19 02:42:19;;;;;;;0.60;0.60;;;5.40;99.90;;;;;;5067232;28;20221;-89
2022/02/19 02:44:45;;;;;;;0.30;0.30;;;5.40;99.90;;;;;;5037728;28;20220;-89
2022/02/19 02:47:11;;;;;;;1.60;0.87;;;5.40;99.90;;;;;;5058850;28;20192;-90
2022/02/19 02:49:38;;;;;;;1.13;1.13;;;5.40;99.90;;;;;;5067170;28;20217;-92
2022/02/19 02:52:07;;;;;;;1.90;1.50;;;5.40;99.90;;;;;;5067835;28;20213;-90
2022/02/19 02:54:33;;;;;;;3.47;0.53;;;5.40;99.90;;;;;;5058435;28;20272;-91
2022/02/19 02:56:59;;;;;;;0.60;0.60;;;5.30;99.90;;;;;;5069286;28;20640;-89
2022/02/19 02:59:25;;;;;;;0.63;0.33;;;5.40;99.90;;;;;;5068376;28;20194;-89
2022/02/19 03:01:51;;;;;;;0.63;0.63;;;5.40;99.90;;;;;;5069590;28;20193;-89
2022/02/19 03:04:17;;;;;;;4.70;0.60;;;5.40;99.90;;;;;;5024027;28;20705;-89
2022/02/19 03:06:42;;;;;;;0.80;0.80;;;5.40;99.90;;;;;;5038430;28;20284;-89
2022/02/19 03:09:08;;;;;;;5.87;0.40;;;5.30;99.90;;;;;;5056568;28;20297;-90
2022/02/19 03:11:35;;;;;;;0.50;0.50;;;5.40;99.90;;;;;;5056491;28;20214;-91
2022/02/19 03:14:02;;;;;;;0.37;0.37;;;5.30;99.90;;;;;;5042799;28;20190;-90
2022/02/19 03:16:28;;;;;;;1.07;1.07;;;5.30;99.90;;;;;;5056903;28;20213;-90
2022/02/19 03:18:54;;;;;;;0.30;0.30;;;5.20;99.90;;;;;;5056871;28;20305;-90
2022/02/19 03:21:20;;;;;;;5.33;0.93;;;5.20;99.90;;;;;;5068059;28;20219;-89
2022/02/19 03:23:52;;;;;;;1.10;0.50;;;5.30;99.90;;;;;;5058347;28;20678;-89
2022/02/19 03:26:19;;;;;;;0.63;0.50;;;5.30;99.90;;;;;;5042218;28;20193;-92
2022/02/19 03:28:44;;;;;;;0.77;0.77;;;5.40;99.90;;;;;;5058122;28;20193;-91
2022/02/19 03:31:10;;;;;;;2.27;0.93;;;5.40;99.90;;;;;;5055062;28;20358;-91
2022/02/19 03:33:36;;;;;;;0.30;0.30;;;5.40;99.90;;;;;;5038222;28;20229;-91
2022/02/19 03:36:02;;;;;;;1.87;0.80;;;5.40;99.90;;;;;;5037817;28;20216;-90
2022/02/19 03:38:28;;;;;;;0.83;0.50;;;5.40;99.90;;;;;;5053277;28;20701;-90
2022/02/19 03:40:53;;;;;;;1.70;0.87;;;5.40;99.90;;;;;;5053990;28;20328;-88
2022/02/19 03:43:19;;;;;;;0.80;0.80;;;5.40;99.90;;;;;;5065264;28;20232;-91
2022/02/19 03:45:45;;;;;;;0.57;0.57;;;5.30;99.90;;;;;;5066098;28;20253;-89
2022/02/19 03:48:11;;;;;;;1.07;1.07;;;5.30;99.90;;;;;;5039739;28;20217;-89
2022/02/19 03:50:37;;;;;;;0.60;0.60;;;5.30;99.90;;;;;;5054881;28;20217;-90
2022/02/19 03:53:04;;;;;;;1.00;1.00;;;5.20;99.90;;;;;;5058193;28;20193;-87
2022/02/19 03:55:29;;;;;;;0.23;0.23;;;5.20;99.90;;;;;;5052622;28;20559;-90
2022/02/19 03:57:55;;;;;;;7.50;0.80;;;5.20;99.90;;;;;;5039483;28;20686;-90
2022/02/19 04:00:21;;;;;;;1.00;0.40;;;5.30;99.90;;;;;;5049473;28;20217;-90
2022/02/19 04:02:47;;;;;;;0.67;0.67;;;5.20;99.90;;;;;;5039010;28;20242;-90
2022/02/19 04:05:14;;;;;;;1.27;0.73;;;5.30;99.90;;;;;;5041149;28;20185;-91
2022/02/19 04:07:41;;;;;;;0.40;0.40;;;5.30;99.90;;;;;;5054457;28;20255;-90
2022/02/19 04:10:08;;;;;;;0.40;0.40;;;5.40;99.90;;;;;;5065552;28;20209;-91
2022/02/19 04:12:34;;;;;;;0.20;0.20;;;5.50;99.90;;;;;;5041339;28;20261;-92
2022/02/19 04:15:00;;;;;;;3.40;0.53;;;5.40;99.90;;;;;;5057345;28;20229;-90
2022/02/19 04:17:25;;;;;;;0.40;0.40;;;5.40;99.90;;;;;;5040555;28;20197;-90
2022/02/19 04:19:53;;;;;;;1.90;1.30;;;5.40;99.90;;;;;;5056194;28;20200;-90
2022/02/19 04:22:23;;;;;;;1.03;0.73;;;5.50;99.90;;;;;;5038582;28;20232;-89
2022/02/19 04:24:49;;;;;;;0.97;0.97;;;5.60;99.90;;;;;;5066329;28;20281;-90
2022/02/19 04:27:16;;;;;;;0.40;0.40;;;5.60;99.90;;;;;;5057891;28;20248;-90
2022/02/19 04:29:42;;;;;;;4.67;2.50;;;5.60;99.90;;;;;;5055164;28;20253;-91
2022/02/19 04:32:09;;;;;;;0.50;0.50;;;5.50;99.90;;;;;;5066816;28;20578;-89
2022/02/19 04:34:36;;;;;;;0.33;0.33;;;5.50;99.90;;;;;;5041078;28;20744;-89
2022/02/19 04:37:03;;;;;;;3.83;2.00;;;5.60;99.90;;;;;;5038869;28;20585;-89
2022/02/19 04:39:28;;;;;;;1.07;1.07;;;5.50;99.90;;;;;;5065720;28;20209;-87
2022/02/19 04:41:54;;;;;;;1.40;0.80;;;5.60;99.90;;;;;;5041112;28;20225;-88
2022/02/19 04:44:20;;;;;;;2.87;2.50;;;5.50;99.90;;;;;;5055968;28;20304;-89
2022/02/19 04:46:45;;;;;;;2.83;1.63;;;5.40;99.90;;;;;;5040035;28;20926;-90
2022/02/19 04:49:11;;;;;;;10.13;0.83;;;5.50;99.90;;;;;;5039413;28;20228;-90
2022/02/19 04:51:37;;;;;;;0.97;0.97;;;5.50;99.90;;;;;;5021662;28;20232;-87
2022/02/19 04:54:04;;;;;;;5.13;0.63;;;5.20;99.90;;;;;;5052613;28;20225;-89
2022/02/19 04:56:31;;;;;;;0.40;0.40;;;5.10;99.90;;;;;;5055944;28;20194;-88
2022/02/19 04:58:57;;;;;;;1.90;1.13;;;5.10;99.90;;;;;;5056426;28;20196;-87
2022/02/19 05:01:23;;;;;;;4.53;2.40;;;5.20;99.90;;;;;;5055004;28;20221;-89
2022/02/19 05:03:48;;;;;;;7.17;2.37;;;5.20;99.90;;;;;;5054851;28;20224;-86
2022/02/19 05:06:14;;;;;;;9.93;2.03;;;5.20;99.90;;;;;;5056794;28;20248;-91
2022/02/19 05:08:41;;;;;;;0.80;0.80;;;5.40;99.90;;;;;;5057496;28;20862;-92
2022/02/19 05:11:07;;;;;;;7.53;0.60;;;5.40;99.90;;;;;;5056220;28;21013;-90
2022/02/19 05:13:33;;;;;;;3.23;1.57;;;5.40;99.90;;;;;;5055627;28;20227;-91
2022/02/19 05:15:59;;;;;;;6.83;1.40;;;5.50;99.90;;;;;;5065716;28;20221;-87
2022/02/19 05:18:25;;;;;;;4.33;0.97;;;5.60;99.90;;;;;;5039044;28;20707;-90
2022/02/19 05:20:52;;;;;;;3.20;2.90;;;5.70;99.90;;;;;;5038100;28;20240;-87
2022/02/19 05:23:20;;;;;;;0.47;0.40;;;5.80;99.90;;;;;;5035503;28;20204;-89
2022/02/19 05:25:46;;;;;;;2.20;1.13;;;5.90;99.90;;;;;;5039954;28;20189;-89
2022/02/19 05:28:12;;;;;;;1.93;1.73;;;6.00;99.90;;;;;;5050180;28;20278;-90
2022/02/19 05:30:38;;;;;;;3.30;0.97;;;6.00;99.90;;;;;;5037096;28;20209;-90
2022/02/19 05:33:04;;;;;;;2.33;1.50;;;6.00;99.90;;;;;;5056706;28;20259;-92
2022/02/19 05:35:30;;;;;;;2.13;1.27;;;6.10;99.90;;;;;;5021333;28;20209;-88
2022/02/19 05:37:56;;;;;;;0.43;0.43;;;6.10;99.90;;;;;;5038770;28;20209;-90
2022/02/19 05:40:21;;;;;;;1.83;1.37;;;6.10;99.90;;;;;;5038598;28;21019;-89
2022/02/19 05:42:47;;;;;;;1.30;1.17;;;6.10;99.90;;;;;;5038626;28;20221;-88
2022/02/19 05:45:13;;;;;;;4.33;1.27;;;6.10;99.90;;;;;;5054799;28;20686;-88
2022/02/19 05:47:39;;;;;;;4.03;1.67;;;6.10;99.90;;;;;;5055064;28;20243;-88
2022/02/19 05:50:05;;;;;;;1.53;1.43;;;6.10;99.90;;;;;;5057155;28;20209;-88
2022/02/19 05:52:31;;;;;;;6.23;0.93;;;6.00;99.90;;;;;;5059246;28;20568;-90
2022/02/19 05:54:57;;;;;;;8.30;1.43;;;6.00;99.90;;;;;;5059336;28;20211;-87
2022/02/19 05:57:23;;;;;;;3.20;2.00;;;6.10;99.90;;;;;;5068993;28;20722;-91
2022/02/19 05:59:50;;;;;;;2.10;1.90;;;6.00;99.90;;;;;;5042255;28;20292;-88
2022/02/19 06:02:17;;;;;;;10.43;1.70;;;6.00;99.90;;;;;;5041938;28;20308;-89
2022/02/19 06:04:43;;;;;;;6.33;2.00;;;6.10;99.90;;;;;;5042540;28;20216;-87
2022/02/19 06:07:09;;;;;;;8.90;1.63;;;6.10;99.90;;;;;;5069161;28;20220;-88
2022/02/19 06:09:34;;;;;;;4.87;2.17;;;6.10;99.90;;;;;;5042232;28;20216;-87
2022/02/19 06:12:00;;;;;;;9.73;1.10;;;6.20;99.90;;;;;;5024940;28;20240;-87
2022/02/19 06:14:35;;;;;;;2.93;1.47;;;6.10;99.90;;;;;;5024914;28;20193;-88
2022/02/19 06:17:02;;;;;;;6.87;1.77;;;6.00;99.90;;;;;;5027446;28;20189;-88
2022/02/19 06:19:28;;;;;;;3.03;0.87;;;5.90;99.90;;;;;;5041942;28;20686;-87
2022/02/19 06:21:53;;;;;;;2.27;1.77;;;5.90;99.90;;;;;;5067204;28;20221;-87
2022/02/19 06:24:19;;;;;;;3.40;1.47;;;5.90;99.90;;;;;;5067591;28;20316;-89
2022/02/19 06:26:45;;;;;;;1.17;0.97;;;5.90;99.90;;;;;;5041698;28;20670;-90
2022/02/19 06:29:11;;;;;;;1.60;1.50;;;5.90;99.90;;;;;;5056775;28;20239;-88
2022/02/19 06:31:36;;;;;;;2.63;0.97;;;5.90;99.90;;;;;;5040354;28;20815;-87
2022/02/19 06:34:02;;;;;;;0.90;0.90;;;6.00;99.90;;;;;;5057001;28;20694;-87
2022/02/19 06:36:28;;;;;;;9.77;1.53;;;6.00;99.90;;;;;;5039124;28;20237;-89
2022/02/19 06:38:54;;;;;;;2.53;0.83;;;6.10;99.90;;;;;;5069762;28;20224;-88
2022/02/19 06:41:19;;;;;;;0.60;0.60;;;5.80;99.90;;;;;;5042100;28;20642;-88
2022/02/19 06:43:45;;;;;;;2.83;1.37;;;5.70;99.90;;;;;;5043414;28;20243;-87
2022/02/19 06:46:11;;;;;;;2.70;1.37;;;5.70;99.90;;;;;;5042864;28;20221;-89
2022/02/19 06:48:37;;;;;;;1.03;1.03;;;5.70;99.90;;;;;;5027721;28;20274;-87
2022/02/19 06:51:02;;;;;;;0.70;0.70;;;5.90;99.90;;;;;;5041044;28;20225;-88
2022/02/19 06:53:28;;;;;;;1.00;0.90;;;5.80;99.90;;;;;;5038867;28;20194;-87
2022/02/19 06:55:54;;;;;;;0.93;0.93;;;5.60;99.90;;;;;;5056595;28;20190;-89
2022/02/19 06:58:20;;;;;;;1.67;0.80;;;5.50;99.90;;;;;;5051889;28;21130;-89
2022/02/19 07:00:47;;;;;;;2.40;1.17;;;5.40;99.90;;;;;;5050880;28;20566;-87
2022/02/19 07:03:12;;;;;;;1.57;0.83;;;5.40;99.90;;;;;;5057782;28;20217;-90
2022/02/19 07:05:38;;;;;;;1.57;1.47;;;5.40;99.90;;;;;;5054279;28;20232;-89
2022/02/19 07:08:04;;;;;;;9.97;2.73;;;5.60;99.90;;;;;;5022752;28;20220;-89
2022/02/19 07:10:30;;;;;;;1.23;0.93;;;5.70;99.90;;;;;;5066315;28;20685;-91
2022/02/19 07:12:56;;;;;;;4.23;1.27;;;5.80;99.90;;;;;;5058471;28;20780;-89
2022/02/19 07:15:22;;;;;;;0.57;0.40;;;5.80;99.90;;;;;;5033853;28;20679;-89
2022/02/19 07:17:53;;;;;;;0.57;0.57;;;5.70;99.90;;;;;;5040443;28;20308;-87
2022/02/19 07:20:21;;;;;;;4.47;0.83;;;5.50;99.90;;;;;;5047911;28;20185;-87
2022/02/19 07:22:48;;;;;;;1.07;1.07;;;5.40;99.90;;;;;;5040293;28;20201;-86
2022/02/19 07:25:13;;;;;;;1.73;1.63;;;5.50;99.90;;;;;;5067315;28;20209;-85
2022/02/19 07:27:44;;;;;;;6.53;1.57;;;5.60;99.90;;;;;;5021707;28;20224;-86
2022/02/19 07:30:13;;;;;;;1.67;1.57;;;5.80;99.90;;;;;;5056102;28;20236;-88
2022/02/19 07:32:39;;;;;;;2.70;0.73;;;5.90;99.90;;;;;;5065542;28;20243;-87
2022/02/19 07:35:09;;;;;;;0.77;0.73;;;6.00;99.90;;;;;;5041655;28;20190;-87
2022/02/19 07:37:36;;;;;;;1.67;1.57;;;6.00;99.90;;;;;;5039497;28;20221;-88
2022/02/19 07:40:04;;;;;;;1.67;1.57;;;6.10;99.90;;;;;;5052691;28;20584;-88
2022/02/19 07:42:29;;;;;;;1.80;0.80;;;6.30;99.90;;;;;;5062944;28;20213;-86
2022/02/19 07:44:56;;;;;;;5.00;1.53;;;6.60;99.90;;;;;;5063957;28;20217;-87
2022/02/19 07:47:26;;;;;;;4.00;1.57;;;6.50;99.90;;;;;;5037248;28;20194;-87
2022/02/19 07:58:26;;;;;;;0.57;0.57;;;6.70;99.90;;;;;;5062645;28;20267;-88
2022/02/19 08:01:04;;;;;;;5.90;3.83;;;7.80;99.90;;;;;;5052238;28;20236;-88
2022/02/19 08:03:31;;;;;;;0.40;0.40;;;8.50;99.90;;;;;;5053863;28;20220;-86
2022/02/19 08:05:58;;;;;;;0.87;0.67;;;8.20;99.90;;;;;;5037567;28;20337;-88
2022/02/19 08:08:25;;;;;;;4.37;0.83;;;7.50;99.90;;;;;;5055778;28;20212;-87
2022/02/19 08:10:51;;;;;;;0.63;0.63;;;7.10;99.90;;;;;;5069199;28;20189;-88
2022/02/19 08:13:18;;;;;;;0.97;0.80;;;6.90;99.90;;;;;;5057745;28;20581;-90
2022/02/19 08:15:50;;;;;;;0.87;0.87;;;6.60;99.90;;;;;;5066772;28;20209;-88
2022/02/19 08:18:16;;;;;;;0.43;0.43;;;6.30;99.90;;;;;;5056879;28;20221;-87
2022/02/19 08:20:44;;;;;;;2.97;1.43;;;6.10;99.90;;;;;;5057395;28;20209;-86
2022/02/19 08:23:11;;;;;;;0.83;0.83;;;5.90;99.90;;;;;;5056500;28;20208;-90
2022/02/19 08:25:38;;;;;;;7.30;0.93;;;6.00;99.90;;;;;;5056046;28;20610;-90
2022/02/19 08:28:07;;;;;;;5.73;1.33;;;6.00;99.90;;;;;;5033291;28;20223;-89
2022/02/19 08:30:38;;;;;;;4.10;0.60;;;6.00;99.90;;;;;;5057827;28;20221;-88
2022/02/19 08:33:05;;;;;;;3.50;1.80;;;6.10;99.90;;;;;;5037419;28;20232;-87
2022/02/19 08:35:31;;;;;;;0.83;0.63;;;6.20;99.90;;;;;;5021115;28;20213;-88
2022/02/19 08:37:56;;;;;;;3.60;1.63;;;6.70;99.90;;;;;;5038128;28;20298;-89
2022/02/19 08:40:23;;;;;;;0.67;0.63;;;7.50;99.90;;;;;;5053589;28;20224;-88
2022/02/19 08:42:49;;;;;;;3.63;1.37;;;8.70;99.90;;;;;;5056563;28;20307;-88
2022/02/19 08:45:16;;;;;;;1.33;1.27;;;8.50;99.90;;;;;;5054947;28;20313;-87
2022/02/19 08:47:43;;;;;;;0.70;0.70;;;8.10;99.90;;;;;;5040120;28;20335;-86
2022/02/19 08:50:11;;;;;;;6.13;2.80;;;8.80;99.90;;;;;;5056138;28;20304;-86
2022/02/19 08:52:41;;;;;;;0.43;0.43;;;8.80;99.90;;;;;;5057025;28;20233;-87
2022/02/19 08:55:10;;;;;;;1.00;1.00;;;8.10;99.90;;;;;;5065748;28;20239;-87
2022/02/19 08:57:36;;;;;;;2.43;0.87;;;8.00;99.90;;;;;;5055977;28;20322;-88
2022/02/19 09:00:04;;;;;;;2.40;1.33;;;8.10;99.90;;;;;;5055621;28;20585;-88
2022/02/19 09:02:30;;;;;;;1.83;0.90;;;8.00;99.90;;;;;;5064877;28;20189;-89
2022/02/19 09:04:56;;;;;;;2.17;0.83;;;7.90;99.90;;;;;;5028441;28;20189;-88
2022/02/19 09:07:21;;;;;;;1.63;1.60;;;7.80;99.90;;;;;;5029373;28;20721;-88
2022/02/19 09:09:47;;;;;;;0.50;0.50;;;7.70;99.90;;;;;;5052399;28;20308;-89
2022/02/19 09:12:14;;;;;;;4.43;1.67;;;7.60;99.90;;;;;;5038577;28;20228;-88
2022/02/19 09:14:40;;;;;;;0.67;0.67;;;7.60;99.90;;;;;;5053593;28;20221;-86
2022/02/19 09:17:06;;;;;;;3.70;1.27;;;7.40;99.90;;;;;;5065819;28;20205;-87
2022/02/19 09:19:32;;;;;;;2.00;1.50;;;7.20;99.90;;;;;;5054202;28;20246;-87
2022/02/19 09:21:58;;;;;;;2.80;1.07;;;7.20;99.90;;;;;;5064417;28;20213;-87
2022/02/19 09:24:24;;;;;;;0.80;0.80;;;7.10;99.90;;;;;;5055866;28;20652;-90
2022/02/19 09:26:50;;;;;;;6.57;1.13;;;7.00;99.90;;;;;;5053659;28;20236;-91
2022/02/19 09:29:15;;;;;;;2.23;0.87;;;7.10;99.90;;;;;;5039909;28;21149;-84
2022/02/19 09:31:41;;;;;;;1.70;1.47;;;7.10;99.90;;;;;;5054435;28;20224;-86
2022/02/19 09:34:08;;;;;;;0.53;0.50;;;7.10;99.90;;;;;;5055455;28;20213;-84
2022/02/19 09:36:34;;;;;;;0.50;0.50;;;7.20;99.90;;;;;;5053891;28;20303;-86
2022/02/19 09:39:00;;;;;;;1.40;0.60;;;7.20;99.90;;;;;;5037228;28;20270;-86
2022/02/19 09:41:27;;;;;;;0.60;0.60;;;7.10;99.90;;;;;;5055835;28;20608;-86
2022/02/19 09:43:52;;;;;;;1.80;0.67;;;7.10;99.90;;;;;;5066189;28;20193;-85
2022/02/19 09:46:19;;;;;;;0.20;0.20;;;7.20;99.90;;;;;;5053589;28;20220;-86
2022/02/19 09:48:46;;;;;;;2.43;1.33;;;7.20;99.90;;;;;;5055295;28;20282;-87
2022/02/19 09:51:13;;;;;;;0.30;0.30;;;7.10;99.90;;;;;;5038152;28;20221;-87
2022/02/19 09:53:39;;;;;;;0.60;0.40;;;7.00;99.90;;;;;;5034418;28;20237;-87
2022/02/19 09:56:06;;;;;;;5.07;1.00;;;7.10;99.90;;;;;;5053119;28;20192;-87
2022/02/19 09:58:33;;;;;;;2.87;1.57;;;7.10;99.90;;;;;;5063666;28;20221;-84
2022/02/19 10:01:34;;;;;;;6.63;0.97;;;7.10;99.90;;;;;;5036935;28;20221;-84
2022/02/19 10:04:02;;;;;;;2.20;1.07;;;7.10;99.90;;;;;;4984341;28;20214;-84
2022/02/19 10:06:29;;;;;;;3.63;0.93;;;7.10;99.90;;;;;;5056348;28;20219;-85
2022/02/19 10:09:18;;;;;;;1.57;0.97;;;7.00;99.90;;;;;;5052211;28;20235;-88
2022/02/19 10:11:46;;;;;;;2.53;0.83;;;7.00;99.90;;;;;;5054721;28;20736;-84
2022/02/19 10:14:21;;;;;;;0.87;0.87;;;6.90;99.90;;;;;;5040576;28;21404;-87
2022/02/19 10:17:15;;;;;;;0.93;0.90;;;7.00;99.90;;;;;;5065509;28;20220;-86
2022/02/19 10:20:01;;;;;;;0.30;0.30;;;7.20;99.90;;;;;;5055231;28;20659;-85
2022/02/19 10:22:28;;;;;;;1.57;1.37;;;7.20;99.90;;;;;;5064660;28;20213;-83
2022/02/19 10:24:59;;;;;;;1.50;0.57;;;7.10;99.90;;;;;;5054935;28;20209;-84
2022/02/19 10:27:44;;;;;;;9.57;0.37;;;7.30;99.90;;;;;;5065626;28;20243;-86
2022/02/19 10:30:18;;;;;;;4.37;1.23;;;7.30;99.90;;;;;;5065714;28;20244;-84
2022/02/19 10:32:57;;;;;;;2.83;1.30;;;7.60;99.90;;;;;;5053155;28;20244;-84
2022/02/19 10:35:36;;;;;;;6.73;1.23;;;7.80;99.90;;;;;;5066171;28;20525;-87
2022/02/19 10:38:04;;;;;;;2.33;0.60;;;7.50;99.90;;;;;;5042055;28;20200;-86
2022/02/19 10:40:39;;;;;;;3.20;1.37;;;7.50;99.90;;;;;;5058188;28;20217;-86
2022/02/19 10:43:10;;;;;;;1.10;1.00;;;7.60;99.90;;;;;;5068441;28;20247;-86
2022/02/19 10:45:49;;;;;;;2.90;2.67;;;7.60;99.90;;;;;;5054997;28;20233;-86
2022/02/19 10:48:22;;;;;;;1.50;1.00;;;7.60;99.90;;;;;;5068159;28;20267;-86
2022/02/19 10:50:48;;;;;;;5.37;0.57;;;7.60;99.90;;;;;;5057055;28;20227;-86
2022/02/19 10:53:22;;;;;;;0.53;0.53;;;7.60;99.90;;;;;;5058237;28;20185;-86
2022/02/19 10:55:48;;;;;;;7.33;2.17;;;7.60;99.90;;;;;;5067960;28;20228;-86
2022/02/19 10:58:15;;;;;;;0.60;0.60;;;7.70;99.90;;;;;;5067951;28;20209;-86
2022/02/19 11:00:42;;;;;;;5.00;0.83;;;7.70;99.90;;;;;;5040984;28;20247;-85
2022/02/19 11:03:11;;;;;;;2.90;0.73;;;7.60;99.90;;;;;;5025503;28;20209;-86
2022/02/19 11:05:39;;;;;;;0.60;0.60;;;7.80;99.90;;;;;;5040075;28;20847;-86
2022/02/19 11:08:05;;;;;;;0.83;0.63;;;7.70;99.90;;;;;;5026338;28;20228;-86
2022/02/19 11:10:33;;;;;;;0.80;0.80;;;7.60;99.90;;;;;;5057402;28;20241;-87
2022/02/19 11:13:00;;;;;;;0.80;0.80;;;7.60;99.90;;;;;;5057799;28;20706;-87
2022/02/19 11:15:27;;;;;;;8.87;0.70;;;7.40;99.90;;;;;;5067894;28;20303;-86
2022/02/19 11:17:54;;;;;;;1.33;1.20;;;7.40;99.90;;;;;;5067405;28;20228;-85
2022/02/19 11:20:23;;;;;;;6.47;1.20;;;7.40;99.90;;;;;;5067150;28;20189;-86
2022/02/19 11:22:49;;;;;;;10.07;0.93;;;7.50;99.90;;;;;;5057071;28;20242;-87
2022/02/19 11:25:16;;;;;;;7.03;1.30;;;7.80;99.90;;;;;;5067444;28;20308;-86
2022/02/19 11:28:04;;;;;;;0.53;0.53;;;8.50;99.90;;;;;;5038027;28;20216;-86
2022/02/19 11:30:33;;;;;;;1.10;0.87;;;8.80;99.90;;;;;;5062958;28;20213;-86
2022/02/19 11:33:00;;;;;;;1.07;0.67;;;8.80;99.90;;;;;;5062802;28;20724;-85
2022/02/19 11:35:32;;;;;;;1.50;0.67;;;8.80;99.90;;;;;;5053180;28;20728;-84
2022/02/19 11:37:59;;;;;;;5.03;0.87;;;9.00;99.90;;;;;;5057388;28;20181;-85
2022/02/19 11:40:25;;;;;;;0.60;0.60;;;9.20;99.90;;;;;;5065363;28;20588;-85
2022/02/19 11:42:53;;;;;;;6.43;1.10;;;9.50;99.90;;;;;;5039803;28;20686;-86
2022/02/19 11:45:31;;;;;;;2.80;1.80;;;9.40;99.90;;;;;;5049920;28;20221;-84
2022/02/19 11:48:05;;;;;;;5.17;1.00;;;9.40;99.90;;;;;;5052079;28;20217;-85
2022/02/19 11:50:33;;;;;;;0.40;0.40;;;9.20;99.90;;;;;;5054278;28;20192;-84
2022/02/19 11:53:09;;;;;;;0.80;0.80;;;9.60;99.90;;;;;;5053964;28;20300;-86
2022/02/19 11:55:38;;;;;;;0.50;0.50;;;9.90;99.90;;;;;;5065515;28;20266;-85
2022/02/19 11:58:07;;;;;;;3.90;0.60;;;9.80;99.90;;;;;;5055807;28;20719;-85
2022/02/19 12:00:56;;;;;;;1.53;1.20;;;9.60;99.90;;;;;;5056289;28;20217;-84
2022/02/19 12:03:26;;;;;;;0.20;0.20;;;9.40;99.90;;;;;;5066001;28;20213;-85
2022/02/19 12:06:18;;;;;;;2.30;0.37;;;9.40;99.90;;;;;;5066799;28;20213;-86
2022/02/19 12:08:47;;;;;;;2.73;1.07;;;9.50;99.90;;;;;;5055092;28;21113;-83
2022/02/19 12:11:15;;;;;;;4.83;1.03;;;9.30;99.90;;;;;;5066284;28;20232;-83
2022/02/19 12:13:45;;;;;;;1.57;0.50;;;9.10;99.90;;;;;;5054680;28;20596;-84
2022/02/19 12:16:34;;;;;;;0.87;0.87;;;8.90;99.90;;;;;;5065683;28;20220;-84
2022/02/19 12:19:03;;;;;;;2.30;2.03;;;9.20;99.90;;;;;;5065873;28;20216;-83
2022/02/19 12:21:33;;;;;;;1.93;1.03;;;9.20;99.90;;;;;;5065133;28;20215;-84
2022/02/19 12:24:21;;;;;;;4.23;1.03;;;9.10;99.90;;;;;;5065254;28;20228;-86
2022/02/19 12:27:15;;;;;;;0.80;0.80;;;9.10;99.90;;;;;;5065016;28;20343;-87
2022/02/19 12:29:41;;;;;;;1.07;1.07;;;8.90;99.90;;;;;;5065134;28;20224;-87
2022/02/19 12:32:17;;;;;;;2.20;1.57;;;9.10;99.90;;;;;;5055471;28;20692;-85
2022/02/19 12:34:48;;;;;;;0.97;0.97;;;9.00;99.90;;;;;;5054471;28;20220;-83
2022/02/19 12:37:14;;;;;;;1.30;1.17;;;8.60;99.90;;;;;;5054390;28;21004;-83
2022/02/19 12:39:53;;;;;;;0.77;0.50;;;8.40;99.90;;;;;;5039670;28;20205;-83
2022/02/19 12:42:24;;;;;;;2.30;1.07;;;8.30;99.90;;;;;;5054016;28;20213;-84
2022/02/19 12:45:07;;;;;;;1.40;1.37;;;8.30;99.90;;;;;;5062305;28;20219;-86
2022/02/19 12:47:35;;;;;;;0.93;0.60;;;8.20;99.90;;;;;;5052801;28;20177;-84
2022/02/19 12:50:03;;;;;;;5.87;1.53;;;8.20;99.90;;;;;;5052413;28;20196;-84
2022/02/19 12:52:29;;;;;;;0.50;0.50;;;8.20;99.90;;;;;;5062632;28;20243;-86
2022/02/19 12:54:55;;;;;;;10.10;0.93;;;8.10;99.90;;;;;;5049602;28;20244;-85
2022/02/19 12:57:22;;;;;;;1.93;0.57;;;8.00;99.90;;;;;;5064495;28;20572;-84
2022/02/19 12:59:51;;;;;;;6.23;0.43;;;8.00;99.90;;;;;;5037413;28;20213;-83
2022/02/19 13:02:18;;;;;;;0.80;0.80;;;8.10;99.90;;;;;;5065156;28;20242;-83
2022/02/19 13:04:45;;;;;;;2.17;0.57;;;8.10;99.90;;;;;;5065160;28;20193;-85
2022/02/19 13:07:18;;;;;;;0.47;0.47;;;8.20;99.90;;;;;;5021226;28;20232;-81
2022/02/19 13:09:48;;;;;;;0.40;0.40;;;8.30;99.90;;;;;;5055431;28;20212;-83